sensor_id;sensor_type;location;lat;lon;timestamp;pressure;altitude;pressure_sealevel;temperature;humidity
39793;BME280;26080;42.264;24.536;2023-02-17T00:00:08;100318.81;;;-1.81;100.00
39793;BME280;26080;42.264;24.536;2023-02-17T00:02:36;100293.66;;;-1.99;100.00
39793;BME280;26080;42.264;24.536;2023-02-17T00:05:02;100305.81;;;-1.92;100.00
39793;BME280;26080;42.264;24.536;2023-02-17T00:07:30;100314.88;;;-1.64;100.00
39793;BME280;26080;42.264;24.536;2023-02-17T00:09:57;100313.19;;;-1.62;100.00
39793;BME280;26080;42.264;24.536;2023-02-17T00:12:23;100309.59;;;-1.70;100.00
39793;BME280;26080;42.264;24.536;2023-02-17T00:14:49;100306.94;;;-1.76;100.00
39793;BME280;26080;42.264;24.536;2023-02-17T00:17:14;100304.25;;;-1.82;100.00
39793;BME280;26080;42.264;24.536;2023-02-17T00:19:39;100302.34;;;-1.92;100.00
39793;BME280;26080;42.264;24.536;2023-02-17T00:22:05;100297.38;;;-1.83;100.00
39793;BME280;26080;42.264;24.536;2023-02-17T00:24:32;100301.69;;;-1.81;100.00
39793;BME280;26080;42.264;24.536;2023-02-17T00:26:57;100288.06;;;-1.78;100.00
39793;BME280;26080;42.264;24.536;2023-02-17T00:29:23;100292.81;;;-1.51;100.00
39793;BME280;26080;42.264;24.536;2023-02-17T00:31:51;100281.81;;;-1.42;100.00
39793;BME280;26080;42.264;24.536;2023-02-17T00:34:17;100271.38;;;-1.52;100.00
39793;BME280;26080;42.264;24.536;2023-02-17T00:36:42;100282.28;;;-1.65;100.00
39793;BME280;26080;42.264;24.536;2023-02-17T00:39:08;100253.91;;;-1.74;100.00
39793;BME280;26080;42.264;24.536;2023-02-17T00:41:33;100286.72;;;-1.58;100.00
39793;BME280;26080;42.264;24.536;2023-02-17T00:43:59;100286.66;;;-1.62;100.00
39793;BME280;26080;42.264;24.536;2023-02-17T00:46:25;100279.41;;;-1.83;100.00
39793;BME280;26080;42.264;24.536;2023-02-17T00:48:51;100269.78;;;-1.93;100.00
39793;BME280;26080;42.264;24.536;2023-02-17T00:51:17;100214.94;;;-2.45;100.00
39793;BME280;26080;42.264;24.536;2023-02-17T00:53:44;100257.53;;;-2.08;100.00
39793;BME280;26080;42.264;24.536;2023-02-17T00:56:10;100249.88;;;-2.06;100.00
39793;BME280;26080;42.264;24.536;2023-02-17T00:58:37;100248.03;;;-2.14;100.00
39793;BME280;26080;42.264;24.536;2023-02-17T01:01:03;100228.91;;;-2.31;100.00
39793;BME280;26080;42.264;24.536;2023-02-17T01:03:28;100220.94;;;-2.45;100.00
39793;BME280;26080;42.264;24.536;2023-02-17T01:05:54;100242.56;;;-2.32;100.00
39793;BME280;26080;42.264;24.536;2023-02-17T01:08:20;100242.19;;;-2.50;100.00
39793;BME280;26080;42.264;24.536;2023-02-17T01:10:48;100239.81;;;-2.82;100.00
39793;BME280;26080;42.264;24.536;2023-02-17T01:13:15;100237.56;;;-3.07;100.00
39793;BME280;26080;42.264;24.536;2023-02-17T01:15:43;100244.19;;;-3.15;100.00
39793;BME280;26080;42.264;24.536;2023-02-17T01:18:09;100248.88;;;-3.35;100.00
39793;BME280;26080;42.264;24.536;2023-02-17T01:20:36;100230.28;;;-3.63;100.00
39793;BME280;26080;42.264;24.536;2023-02-17T01:23:03;100237.66;;;-3.75;100.00
39793;BME280;26080;42.264;24.536;2023-02-17T01:25:28;100214.25;;;-3.90;100.00
39793;BME280;26080;42.264;24.536;2023-02-17T01:27:54;100229.75;;;-3.84;100.00
39793;BME280;26080;42.264;24.536;2023-02-17T01:30:19;100216.69;;;-3.95;100.00
39793;BME280;26080;42.264;24.536;2023-02-17T01:32:45;100221.94;;;-3.90;100.00
39793;BME280;26080;42.264;24.536;2023-02-17T01:35:10;100223.56;;;-3.94;100.00
39793;BME280;26080;42.264;24.536;2023-02-17T01:37:36;100221.84;;;-3.93;100.00
39793;BME280;26080;42.264;24.536;2023-02-17T01:40:01;100227.16;;;-3.85;100.00
39793;BME280;26080;42.264;24.536;2023-02-17T01:42:27;100230.78;;;-3.77;100.00
39793;BME280;26080;42.264;24.536;2023-02-17T01:50:09;100212.41;;;-3.61;100.00
39793;BME280;26080;42.264;24.536;2023-02-17T01:52:36;100209.06;;;-3.57;100.00
39793;BME280;26080;42.264;24.536;2023-02-17T01:55:05;100207.44;;;-3.55;100.00
39793;BME280;26080;42.264;24.536;2023-02-17T01:57:34;100215.66;;;-3.31;100.00
39793;BME280;26080;42.264;24.536;2023-02-17T02:00:01;100211.63;;;-3.21;100.00
39793;BME280;26080;42.264;24.536;2023-02-17T02:02:27;100214.97;;;-3.25;100.00
39793;BME280;26080;42.264;24.536;2023-02-17T02:04:55;100195.16;;;-3.32;100.00
39793;BME280;26080;42.264;24.536;2023-02-17T02:07:27;100208.75;;;-3.35;100.00
39793;BME280;26080;42.264;24.536;2023-02-17T02:09:56;100199.25;;;-3.40;100.00
39793;BME280;26080;42.264;24.536;2023-02-17T02:12:34;100187.81;;;-3.15;100.00
39793;BME280;26080;42.264;24.536;2023-02-17T02:15:11;100194.63;;;-3.17;100.00
39793;BME280;26080;42.264;24.536;2023-02-17T02:35:05;100197.81;;;-3.65;100.00
39793;BME280;26080;42.264;24.536;2023-02-17T02:37:35;100148.44;;;-3.96;100.00
39793;BME280;26080;42.264;24.536;2023-02-17T02:40:07;100203.44;;;-3.78;100.00
39793;BME280;26080;42.264;24.536;2023-02-17T02:42:33;100198.00;;;-3.92;100.00
39793;BME280;26080;42.264;24.536;2023-02-17T02:44:59;100200.97;;;-4.10;100.00
39793;BME280;26080;42.264;24.536;2023-02-17T02:49:56;100196.94;;;-4.33;100.00
39793;BME280;26080;42.264;24.536;2023-02-17T03:00:24;100201.72;;;-4.45;100.00
39793;BME280;26080;42.264;24.536;2023-02-17T03:02:58;100194.59;;;-4.56;100.00
39793;BME280;26080;42.264;24.536;2023-02-17T03:05:46;100201.56;;;-4.52;100.00
39793;BME280;26080;42.264;24.536;2023-02-17T03:10:59;100186.38;;;-4.45;100.00
39793;BME280;26080;42.264;24.536;2023-02-17T03:13:25;100195.56;;;-4.52;100.00
39793;BME280;26080;42.264;24.536;2023-02-17T03:15:50;100181.00;;;-4.55;100.00
39793;BME280;26080;42.264;24.536;2023-02-17T03:18:16;100187.97;;;-4.49;100.00
39793;BME280;26080;42.264;24.536;2023-02-17T03:20:47;100187.00;;;-4.53;100.00
39793;BME280;26080;42.264;24.536;2023-02-17T03:23:13;100202.66;;;-4.42;100.00
39793;BME280;26080;42.264;24.536;2023-02-17T03:25:39;100205.22;;;-4.42;100.00
39793;BME280;26080;42.264;24.536;2023-02-17T03:28:04;100207.06;;;-4.36;100.00
39793;BME280;26080;42.264;24.536;2023-02-17T03:30:30;100206.72;;;-4.17;100.00
39793;BME280;26080;42.264;24.536;2023-02-17T03:32:55;100196.66;;;-4.42;100.00
39793;BME280;26080;42.264;24.536;2023-02-17T03:35:21;100205.72;;;-4.54;100.00
39793;BME280;26080;42.264;24.536;2023-02-17T03:37:46;100206.97;;;-4.71;100.00
39793;BME280;26080;42.264;24.536;2023-02-17T03:40:11;100198.88;;;-4.86;100.00
39793;BME280;26080;42.264;24.536;2023-02-17T03:42:37;100201.28;;;-4.91;100.00
39793;BME280;26080;42.264;24.536;2023-02-17T03:45:03;100196.06;;;-4.94;100.00
39793;BME280;26080;42.264;24.536;2023-02-17T03:47:28;100199.13;;;-4.77;100.00
39793;BME280;26080;42.264;24.536;2023-02-17T03:49:54;100203.19;;;-4.54;100.00
39793;BME280;26080;42.264;24.536;2023-02-17T03:52:19;100202.66;;;-4.42;100.00
39793;BME280;26080;42.264;24.536;2023-02-17T03:54:44;100192.09;;;-4.54;100.00
39793;BME280;26080;42.264;24.536;2023-02-17T03:57:13;100195.69;;;-4.48;100.00
39793;BME280;26080;42.264;24.536;2023-02-17T03:59:39;100188.34;;;-4.35;100.00
39793;BME280;26080;42.264;24.536;2023-02-17T04:02:04;100190.94;;;-4.34;100.00
39793;BME280;26080;42.264;24.536;2023-02-17T04:04:30;100201.19;;;-4.34;100.00
39793;BME280;26080;42.264;24.536;2023-02-17T04:06:55;100193.44;;;-4.37;100.00
39793;BME280;26080;42.264;24.536;2023-02-17T04:09:20;100188.16;;;-4.41;100.00
39793;BME280;26080;42.264;24.536;2023-02-17T04:11:46;100180.28;;;-4.51;100.00
39793;BME280;26080;42.264;24.536;2023-02-17T04:14:11;100187.97;;;-4.18;100.00
39793;BME280;26080;42.264;24.536;2023-02-17T04:16:37;100194.50;;;-4.27;100.00
39793;BME280;26080;42.264;24.536;2023-02-17T04:19:06;100193.41;;;-4.38;100.00
39793;BME280;26080;42.264;24.536;2023-02-17T04:21:33;100189.94;;;-4.39;100.00
39793;BME280;26080;42.264;24.536;2023-02-17T04:24:00;100194.25;;;-4.38;100.00
39793;BME280;26080;42.264;24.536;2023-02-17T04:26:26;100190.19;;;-4.30;100.00
39793;BME280;26080;42.264;24.536;2023-02-17T04:28:52;100185.47;;;-4.14;100.00
39793;BME280;26080;42.264;24.536;2023-02-17T04:31:17;100187.16;;;-4.15;100.00
39793;BME280;26080;42.264;24.536;2023-02-17T04:33:43;100139.13;;;-4.27;100.00
39793;BME280;26080;42.264;24.536;2023-02-17T04:36:08;100162.72;;;-4.04;100.00
39793;BME280;26080;42.264;24.536;2023-02-17T04:38:36;100182.91;;;-3.81;100.00
39793;BME280;26080;42.264;24.536;2023-02-17T04:41:02;100167.63;;;-3.78;100.00
39793;BME280;26080;42.264;24.536;2023-02-17T04:43:27;100131.34;;;-3.97;100.00
39793;BME280;26080;42.264;24.536;2023-02-17T04:45:53;100172.31;;;-3.59;100.00
39793;BME280;26080;42.264;24.536;2023-02-17T04:48:18;100160.25;;;-3.65;100.00
39793;BME280;26080;42.264;24.536;2023-02-17T04:50:44;100150.72;;;-3.70;100.00
39793;BME280;26080;42.264;24.536;2023-02-17T04:53:10;100166.59;;;-3.49;100.00
39793;BME280;26080;42.264;24.536;2023-02-17T04:55:36;100165.00;;;-3.44;100.00
39793;BME280;26080;42.264;24.536;2023-02-17T04:58:01;100171.16;;;-3.36;100.00
39793;BME280;26080;42.264;24.536;2023-02-17T05:00:27;100174.00;;;-3.23;100.00
39793;BME280;26080;42.264;24.536;2023-02-17T05:02:52;100149.25;;;-3.23;100.00
39793;BME280;26080;42.264;24.536;2023-02-17T05:05:18;100153.94;;;-3.02;100.00
39793;BME280;26080;42.264;24.536;2023-02-17T05:07:44;100159.53;;;-2.81;100.00
39793;BME280;26080;42.264;24.536;2023-02-17T05:10:11;100168.28;;;-2.70;100.00
39793;BME280;26080;42.264;24.536;2023-02-17T05:12:37;100169.56;;;-2.48;100.00
39793;BME280;26080;42.264;24.536;2023-02-17T05:15:05;100173.38;;;-2.27;100.00
39793;BME280;26080;42.264;24.536;2023-02-17T05:17:31;100160.75;;;-2.15;100.00
39793;BME280;26080;42.264;24.536;2023-02-17T05:19:57;100166.97;;;-2.02;100.00
39793;BME280;26080;42.264;24.536;2023-02-17T05:22:23;100160.22;;;-1.96;100.00
39793;BME280;26080;42.264;24.536;2023-02-17T05:24:48;100156.34;;;-1.72;100.00
39793;BME280;26080;42.264;24.536;2023-02-17T05:27:14;100150.63;;;-1.53;100.00
39793;BME280;26080;42.264;24.536;2023-02-17T05:29:39;100158.66;;;-1.30;100.00
39793;BME280;26080;42.264;24.536;2023-02-17T05:32:05;100157.19;;;-1.13;100.00
39793;BME280;26080;42.264;24.536;2023-02-17T05:34:31;100155.91;;;-0.82;100.00
39793;BME280;26080;42.264;24.536;2023-02-17T05:36:56;100158.00;;;-0.46;100.00
39793;BME280;26080;42.264;24.536;2023-02-17T05:39:22;100171.13;;;-0.21;100.00
39793;BME280;26080;42.264;24.536;2023-02-17T05:41:48;100143.72;;;-0.15;100.00
39793;BME280;26080;42.264;24.536;2023-02-17T05:44:13;100180.09;;;0.17;100.00
39793;BME280;26080;42.264;24.536;2023-02-17T05:46:39;100171.59;;;0.29;100.00
39793;BME280;26080;42.264;24.536;2023-02-17T05:49:04;100157.88;;;0.35;100.00
39793;BME280;26080;42.264;24.536;2023-02-17T05:51:29;100182.94;;;0.54;100.00
39793;BME280;26080;42.264;24.536;2023-02-17T05:53:55;100183.94;;;0.71;100.00
39793;BME280;26080;42.264;24.536;2023-02-17T05:56:20;100188.31;;;0.84;100.00
39793;BME280;26080;42.264;24.536;2023-02-17T05:58:46;100190.06;;;0.92;100.00
39793;BME280;26080;42.264;24.536;2023-02-17T06:01:11;100179.78;;;0.98;100.00
39793;BME280;26080;42.264;24.536;2023-02-17T06:03:38;100172.06;;;1.01;100.00
39793;BME280;26080;42.264;24.536;2023-02-17T06:06:04;100185.03;;;1.16;100.00
39793;BME280;26080;42.264;24.536;2023-02-17T06:08:29;100186.81;;;1.25;100.00
39793;BME280;26080;42.264;24.536;2023-02-17T06:10:55;100188.53;;;1.36;100.00
39793;BME280;26080;42.264;24.536;2023-02-17T06:13:21;100196.34;;;1.45;100.00
39793;BME280;26080;42.264;24.536;2023-02-17T06:15:46;100199.84;;;1.64;100.00
39793;BME280;26080;42.264;24.536;2023-02-17T06:18:12;100196.47;;;1.79;100.00
39793;BME280;26080;42.264;24.536;2023-02-17T06:20:38;100199.03;;;1.79;100.00
39793;BME280;26080;42.264;24.536;2023-02-17T06:23:03;100181.78;;;1.72;100.00
39793;BME280;26080;42.264;24.536;2023-02-17T06:25:29;100168.88;;;1.70;100.00
39793;BME280;26080;42.264;24.536;2023-02-17T06:27:54;100187.00;;;1.98;100.00
39793;BME280;26080;42.264;24.536;2023-02-17T06:30:20;100188.75;;;2.25;100.00
39793;BME280;26080;42.264;24.536;2023-02-17T06:32:46;100190.47;;;2.30;100.00
39793;BME280;26080;42.264;24.536;2023-02-17T06:35:12;100187.06;;;2.36;100.00
39793;BME280;26080;42.264;24.536;2023-02-17T06:37:37;100185.31;;;2.53;100.00
39793;BME280;26080;42.264;24.536;2023-02-17T06:40:06;100189.63;;;2.63;100.00
39793;BME280;26080;42.264;24.536;2023-02-17T06:42:32;100195.63;;;2.78;100.00
39793;BME280;26080;42.264;24.536;2023-02-17T06:44:57;100183.56;;;2.80;100.00
39793;BME280;26080;42.264;24.536;2023-02-17T06:47:25;100182.66;;;2.93;100.00
39793;BME280;26080;42.264;24.536;2023-02-17T06:49:50;100189.53;;;3.05;100.00
39793;BME280;26080;42.264;24.536;2023-02-17T06:52:16;100186.09;;;2.98;100.00
39793;BME280;26080;42.264;24.536;2023-02-17T06:54:41;100199.00;;;3.12;100.00
39793;BME280;26080;42.264;24.536;2023-02-17T06:57:07;100191.25;;;3.16;100.00
39793;BME280;26080;42.264;24.536;2023-02-17T06:59:32;100194.66;;;3.23;100.00
39793;BME280;26080;42.264;24.536;2023-02-17T07:01:58;100186.91;;;3.21;100.00
39793;BME280;26080;42.264;24.536;2023-02-17T07:04:23;100192.91;;;3.31;100.00
39793;BME280;26080;42.264;24.536;2023-02-17T07:06:49;100194.59;;;3.37;100.00
39793;BME280;26080;42.264;24.536;2023-02-17T07:09:15;100196.31;;;3.44;100.00
39793;BME280;26080;42.264;24.536;2023-02-17T07:11:40;100197.09;;;3.55;100.00
39793;BME280;26080;42.264;24.536;2023-02-17T07:14:08;100200.56;;;3.60;100.00
39793;BME280;26080;42.264;24.536;2023-02-17T07:16:34;100196.19;;;3.68;100.00
39793;BME280;26080;42.264;24.536;2023-02-17T07:18:59;100190.09;;;3.75;100.00
39793;BME280;26080;42.264;24.536;2023-02-17T07:21:25;100176.25;;;3.79;100.00
39793;BME280;26080;42.264;24.536;2023-02-17T07:23:50;100196.88;;;4.01;100.00
39793;BME280;26080;42.264;24.536;2023-02-17T07:26:16;100207.16;;;4.13;100.00
39793;BME280;26080;42.264;24.536;2023-02-17T07:28:41;100209.72;;;4.18;100.00
39793;BME280;26080;42.264;24.536;2023-02-17T07:31:13;100206.19;;;4.25;100.00
39793;BME280;26080;42.264;24.536;2023-02-17T07:33:39;100204.38;;;4.37;100.00
39793;BME280;26080;42.264;24.536;2023-02-17T07:36:10;100201.81;;;4.34;100.00
39793;BME280;26080;42.264;24.536;2023-02-17T07:38:36;100203.50;;;4.38;100.00
39793;BME280;26080;42.264;24.536;2023-02-17T07:41:10;100200.94;;;4.35;100.00
39793;BME280;26080;42.264;24.536;2023-02-17T07:43:36;100210.41;;;4.42;100.00
39793;BME280;26080;42.264;24.536;2023-02-17T07:46:01;100198.41;;;4.29;100.00
39793;BME280;26080;42.264;24.536;2023-02-17T07:48:27;100214.72;;;4.43;100.00
39793;BME280;26080;42.264;24.536;2023-02-17T07:50:53;100222.47;;;4.45;100.00
39793;BME280;26080;42.264;24.536;2023-02-17T07:53:18;100206.84;;;4.51;99.68
39793;BME280;26080;42.264;24.536;2023-02-17T07:55:44;100213.75;;;4.57;98.06
39793;BME280;26080;42.264;24.536;2023-02-17T07:58:09;100208.38;;;4.75;95.78
39793;BME280;26080;42.264;24.536;2023-02-17T08:00:35;100187.59;;;4.78;95.53
39793;BME280;26080;42.264;24.536;2023-02-17T08:03:00;100207.34;;;4.91;95.80
39793;BME280;26080;42.264;24.536;2023-02-17T08:05:26;100214.06;;;5.12;95.87
39793;BME280;26080;42.264;24.536;2023-02-17T08:07:51;100202.44;;;5.45;91.77
39793;BME280;26080;42.264;24.536;2023-02-17T08:10:37;100190.44;;;6.04;86.20
39793;BME280;26080;42.264;24.536;2023-02-17T08:13:22;100181.16;;;6.42;84.86
39793;BME280;26080;42.264;24.536;2023-02-17T08:15:47;100177.38;;;6.61;83.98
39793;BME280;26080;42.264;24.536;2023-02-17T08:18:13;100178.75;;;6.80;83.22
39793;BME280;26080;42.264;24.536;2023-02-17T08:20:41;100164.44;;;7.03;81.22
39793;BME280;26080;42.264;24.536;2023-02-17T08:23:06;100168.22;;;7.31;81.98
39793;BME280;26080;42.264;24.536;2023-02-17T08:25:33;100165.13;;;7.56;80.32
39793;BME280;26080;42.264;24.536;2023-02-17T08:28:00;100154.22;;;7.77;79.33
39793;BME280;26080;42.264;24.536;2023-02-17T08:30:26;100158.44;;;8.20;78.69
39793;BME280;26080;42.264;24.536;2023-02-17T08:32:51;100163.34;;;8.32;77.73
39793;BME280;26080;42.264;24.536;2023-02-17T08:35:20;100166.53;;;8.46;77.85
39793;BME280;26080;42.264;24.536;2023-02-17T08:37:49;100149.97;;;8.47;78.26
39793;BME280;26080;42.264;24.536;2023-02-17T08:40:15;100172.69;;;8.78;77.17
39793;BME280;26080;42.264;24.536;2023-02-17T08:42:41;100163.91;;;8.80;77.97
39793;BME280;26080;42.264;24.536;2023-02-17T08:45:07;100149.69;;;8.92;77.88
39793;BME280;26080;42.264;24.536;2023-02-17T08:47:34;100151.94;;;9.04;77.86
39793;BME280;26080;42.264;24.536;2023-02-17T08:49:59;100157.63;;;9.49;73.90
39793;BME280;26080;42.264;24.536;2023-02-17T08:52:25;100161.78;;;9.85;71.92
39793;BME280;26080;42.264;24.536;2023-02-17T08:54:51;100150.00;;;10.27;68.56
39793;BME280;26080;42.264;24.536;2023-02-17T08:57:17;100152.63;;;10.54;68.09
39793;BME280;26080;42.264;24.536;2023-02-17T08:59:43;100147.19;;;10.60;67.53
39793;BME280;26080;42.264;24.536;2023-02-17T09:02:12;100148.47;;;10.73;66.76
39793;BME280;26080;42.264;24.536;2023-02-17T09:04:37;100120.56;;;10.72;66.55
39793;BME280;26080;42.264;24.536;2023-02-17T09:07:03;100138.94;;;10.95;65.35
39793;BME280;26080;42.264;24.536;2023-02-17T09:09:28;100144.81;;;11.27;61.83
39793;BME280;26080;42.264;24.536;2023-02-17T09:11:56;100139.50;;;11.52;61.89
39793;BME280;26080;42.264;24.536;2023-02-17T09:14:22;100113.16;;;11.77;59.23
39793;BME280;26080;42.264;24.536;2023-02-17T09:16:51;100109.78;;;11.97;59.85
39793;BME280;26080;42.264;24.536;2023-02-17T09:19:17;100105.47;;;12.38;53.63
39793;BME280;26080;42.264;24.536;2023-02-17T09:21:42;100106.41;;;12.78;51.61
39793;BME280;26080;42.264;24.536;2023-02-17T09:24:11;100085.44;;;12.76;49.91
39793;BME280;26080;42.264;24.536;2023-02-17T09:26:37;100088.13;;;12.74;49.74
39793;BME280;26080;42.264;24.536;2023-02-17T09:29:03;100090.03;;;12.91;49.53
39793;BME280;26080;42.264;24.536;2023-02-17T09:31:29;100090.91;;;13.11;50.39
39793;BME280;26080;42.264;24.536;2023-02-17T09:33:56;100087.47;;;13.48;45.79
39793;BME280;26080;42.264;24.536;2023-02-17T09:36:35;100083.97;;;13.66;42.68
39793;BME280;26080;42.264;24.536;2023-02-17T09:39:01;100093.75;;;13.81;42.82
39793;BME280;26080;42.264;24.536;2023-02-17T09:41:47;100065.13;;;13.92;40.66
39793;BME280;26080;42.264;24.536;2023-02-17T09:44:38;100070.13;;;13.99;40.38
39793;BME280;26080;42.264;24.536;2023-02-17T09:47:16;100078.06;;;13.97;39.72
39793;BME280;26080;42.264;24.536;2023-02-17T09:49:51;100070.81;;;14.02;40.88
39793;BME280;26080;42.264;24.536;2023-02-17T09:55:09;100070.44;;;14.27;39.86
39793;BME280;26080;42.264;24.536;2023-02-17T09:58:00;100070.47;;;14.44;38.91
39793;BME280;26080;42.264;24.536;2023-02-17T10:00:31;100077.00;;;14.55;38.76
39793;BME280;26080;42.264;24.536;2023-02-17T10:03:04;100067.56;;;14.66;37.67
39793;BME280;26080;42.264;24.536;2023-02-17T10:05:38;100069.53;;;14.63;37.89
39793;BME280;26080;42.264;24.536;2023-02-17T10:08:06;100071.53;;;14.75;37.05
39793;BME280;26080;42.264;24.536;2023-02-17T10:10:44;100059.56;;;14.85;36.21
39793;BME280;26080;42.264;24.536;2023-02-17T10:13:15;100015.22;;;14.76;35.27
39793;BME280;26080;42.264;24.536;2023-02-17T10:15:47;100018.75;;;14.92;35.22
39793;BME280;26080;42.264;24.536;2023-02-17T10:18:18;100057.34;;;15.10;34.92
39793;BME280;26080;42.264;24.536;2023-02-17T10:20:50;100040.22;;;15.18;34.77
39793;BME280;26080;42.264;24.536;2023-02-17T10:23:22;100033.16;;;15.18;32.26
39793;BME280;26080;42.264;24.536;2023-02-17T10:29:05;100031.13;;;15.23;31.88
39793;BME280;26080;42.264;24.536;2023-02-17T10:39:56;100021.84;;;15.48;32.50
39793;BME280;26080;42.264;24.536;2023-02-17T10:42:35;100022.03;;;15.60;33.13
39793;BME280;26080;42.264;24.536;2023-02-17T10:45:35;100008.22;;;15.71;32.47
39793;BME280;26080;42.264;24.536;2023-02-17T10:48:05;100014.19;;;15.75;32.24
39793;BME280;26080;42.264;24.536;2023-02-17T10:50:32;100019.47;;;15.75;31.04
39793;BME280;26080;42.264;24.536;2023-02-17T10:52:58;100010.06;;;15.85;31.11
39793;BME280;26080;42.264;24.536;2023-02-17T10:55:35;100012.88;;;15.97;31.40
39793;BME280;26080;42.264;24.536;2023-02-17T11:00:41;99998.63;;;16.00;29.34
39793;BME280;26080;42.264;24.536;2023-02-17T11:03:24;99998.53;;;16.02;28.12
39793;BME280;26080;42.264;24.536;2023-02-17T11:05:51;100000.06;;;16.06;28.65
39793;BME280;26080;42.264;24.536;2023-02-17T11:08:36;99991.38;;;16.04;29.16
39793;BME280;26080;42.264;24.536;2023-02-17T11:11:06;99994.75;;;15.91;28.65
39793;BME280;26080;42.264;24.536;2023-02-17T11:13:42;99991.63;;;15.99;29.16
39793;BME280;26080;42.264;24.536;2023-02-17T11:16:27;99990.91;;;16.11;30.24
39793;BME280;26080;42.264;24.536;2023-02-17T11:18:56;99984.69;;;16.12;27.99
39793;BME280;26080;42.264;24.536;2023-02-17T11:21:22;99975.63;;;16.16;27.99
39793;BME280;26080;42.264;24.536;2023-02-17T11:23:52;99972.06;;;16.17;27.04
39793;BME280;26080;42.264;24.536;2023-02-17T11:26:24;99970.34;;;16.16;27.50
39793;BME280;26080;42.264;24.536;2023-02-17T11:28:49;99978.47;;;16.13;26.24
39793;BME280;26080;42.264;24.536;2023-02-17T11:31:23;99974.63;;;16.19;27.87
39793;BME280;26080;42.264;24.536;2023-02-17T11:33:49;99968.19;;;16.09;27.68
39793;BME280;26080;42.264;24.536;2023-02-17T11:36:28;99968.31;;;16.36;26.65
39793;BME280;26080;42.264;24.536;2023-02-17T11:38:54;99960.09;;;16.40;27.26
39793;BME280;26080;42.264;24.536;2023-02-17T11:41:20;99965.13;;;16.45;27.07
39793;BME280;26080;42.264;24.536;2023-02-17T11:43:56;99965.28;;;16.42;28.58
39793;BME280;26080;42.264;24.536;2023-02-17T11:49:49;99953.59;;;16.60;27.13
39793;BME280;26080;42.264;24.536;2023-02-17T11:55:12;99954.06;;;16.52;25.23
39793;BME280;26080;42.264;24.536;2023-02-17T11:57:50;99948.97;;;16.49;26.38
39793;BME280;26080;42.264;24.536;2023-02-17T12:00:42;99955.66;;;16.55;26.66
39793;BME280;26080;42.264;24.536;2023-02-17T12:15:14;99913.16;;;16.58;26.06
39793;BME280;26080;42.264;24.536;2023-02-17T12:26:47;99917.16;;;16.51;26.92
39793;BME280;26080;42.264;24.536;2023-02-17T12:34:48;99926.13;;;16.63;27.04
39793;BME280;26080;42.264;24.536;2023-02-17T12:37:30;99922.72;;;16.61;27.37
39793;BME280;26080;42.264;24.536;2023-02-17T12:40:02;99915.28;;;16.67;27.04
39793;BME280;26080;42.264;24.536;2023-02-17T12:42:37;99933.78;;;16.67;26.82
39793;BME280;26080;42.264;24.536;2023-02-17T12:48:42;99921.41;;;16.68;25.78
39793;BME280;26080;42.264;24.536;2023-02-17T12:51:16;99909.75;;;16.56;25.43
39793;BME280;26080;42.264;24.536;2023-02-17T12:53:50;99929.81;;;16.74;25.48
39793;BME280;26080;42.264;24.536;2023-02-17T12:58:50;99899.28;;;16.54;25.44
39793;BME280;26080;42.264;24.536;2023-02-17T13:01:18;99898.25;;;16.57;24.62
39793;BME280;26080;42.264;24.536;2023-02-17T13:03:46;99921.78;;;16.76;25.50
39793;BME280;26080;42.264;24.536;2023-02-17T13:11:28;99915.91;;;16.85;26.91
39793;BME280;26080;42.264;24.536;2023-02-17T13:13:54;99898.09;;;16.74;26.25
39793;BME280;26080;42.264;24.536;2023-02-17T13:16:19;99917.91;;;16.67;27.29
39793;BME280;26080;42.264;24.536;2023-02-17T13:18:47;99917.22;;;16.64;28.34
39793;BME280;26080;42.264;24.536;2023-02-17T13:21:17;99903.91;;;16.65;28.50
39793;BME280;26080;42.264;24.536;2023-02-17T13:23:56;99902.22;;;16.64;29.24
39793;BME280;26080;42.264;24.536;2023-02-17T13:26:26;99911.84;;;16.65;29.15
39793;BME280;26080;42.264;24.536;2023-02-17T13:29:04;99907.69;;;16.61;30.35
39793;BME280;26080;42.264;24.536;2023-02-17T13:34:43;99914.13;;;16.71;30.96
39793;BME280;26080;42.264;24.536;2023-02-17T13:39:58;99878.53;;;16.34;31.23
39793;BME280;26080;42.264;24.536;2023-02-17T13:42:37;99917.44;;;16.61;31.55
39793;BME280;26080;42.264;24.536;2023-02-17T13:45:26;99922.88;;;16.57;31.77
39793;BME280;26080;42.264;24.536;2023-02-17T13:47:55;99913.56;;;16.52;31.73
39793;BME280;26080;42.264;24.536;2023-02-17T13:50:42;99914.03;;;16.58;31.72
39793;BME280;26080;42.264;24.536;2023-02-17T13:55:54;99899.50;;;16.37;31.10
39793;BME280;26080;42.264;24.536;2023-02-17T13:58:21;99901.19;;;16.38;31.21
39793;BME280;26080;42.264;24.536;2023-02-17T14:00:47;99909.41;;;16.48;30.90
39793;BME280;26080;42.264;24.536;2023-02-17T14:03:27;99897.78;;;16.36;31.56
39793;BME280;26080;42.264;24.536;2023-02-17T14:05:55;99881.94;;;16.36;29.90
39793;BME280;26080;42.264;24.536;2023-02-17T14:08:34;99908.25;;;16.52;30.66
39793;BME280;26080;42.264;24.536;2023-02-17T14:11:08;99906.56;;;16.51;30.53
39793;BME280;26080;42.264;24.536;2023-02-17T14:13:35;99896.56;;;16.42;30.33
39793;BME280;26080;42.264;24.536;2023-02-17T14:16:02;99898.63;;;16.37;31.21
39793;BME280;26080;42.264;24.536;2023-02-17T14:18:37;99913.75;;;16.49;31.28
39793;BME280;26080;42.264;24.536;2023-02-17T14:21:05;99908.47;;;16.49;30.27
39793;BME280;26080;42.264;24.536;2023-02-17T14:23:46;99912.25;;;16.59;30.08
39793;BME280;26080;42.264;24.536;2023-02-17T14:26:41;99909.97;;;16.53;30.25
39793;BME280;26080;42.264;24.536;2023-02-17T14:29:09;99917.16;;;16.51;31.28